Time;durP1;ratioP1;P1;durP2;ratioP2;P2;SDS_P1;SDS_P2;PMS_P1;PMS_P2;Temp;Humidity;BMP_temperature;BMP_pressure;BME280_temperature;BME280_humidity;BME280_pressure;Samples;Min_cycle;Max_cycle;Signal;HPM_P1;HPM_P2
2023/01/24 00:02:03;;;;;;;24.57;15.07;;;0.80;99.90;;;;;;5072498;28;20718;-72
2023/01/24 00:04:30;;;;;;;26.77;16.20;;;0.80;99.90;;;;;;5072604;28;20196;-72
2023/01/24 00:06:56;;;;;;;23.73;15.67;;;0.80;99.90;;;;;;5073707;28;20258;-73
2023/01/24 00:09:23;;;;;;;23.27;15.20;;;0.80;99.90;;;;;;5072528;28;20271;-72
2023/01/24 00:11:50;;;;;;;23.40;14.37;;;0.80;99.90;;;;;;5072510;28;20197;-72
2023/01/24 00:14:17;;;;;;;21.83;14.93;;;0.80;99.90;;;;;;5074956;28;20281;-71
2023/01/24 00:16:44;;;;;;;24.63;15.87;;;0.90;99.90;;;;;;5076339;28;20225;-72
2023/01/24 00:19:11;;;;;;;24.00;16.23;;;0.80;99.90;;;;;;5076347;28;20549;-73
2023/01/24 00:21:38;;;;;;;24.70;15.40;;;0.90;99.90;;;;;;5076231;28;20201;-72
2023/01/24 00:24:05;;;;;;;23.07;14.93;;;0.80;99.90;;;;;;5076193;28;20197;-72
2023/01/24 00:26:31;;;;;;;24.40;16.57;;;0.80;99.90;;;;;;5075901;28;20298;-72
2023/01/24 00:28:58;;;;;;;23.03;15.40;;;0.90;99.90;;;;;;5076233;28;20193;-72
2023/01/24 00:31:25;;;;;;;23.93;15.43;;;0.90;99.90;;;;;;5076194;28;20283;-72
2023/01/24 00:33:53;;;;;;;25.80;16.17;;;0.90;99.90;;;;;;5075962;28;20274;-72
2023/01/24 00:36:20;;;;;;;26.30;15.57;;;0.90;99.90;;;;;;5075919;28;20225;-73
2023/01/24 00:38:46;;;;;;;26.00;15.90;;;0.90;99.90;;;;;;5075740;28;20649;-72
2023/01/24 00:41:13;;;;;;;24.13;15.83;;;0.90;99.90;;;;;;5076054;28;20231;-72
2023/01/24 00:43:39;;;;;;;24.53;15.40;;;0.90;99.90;;;;;;5075969;28;20197;-72
2023/01/24 00:46:07;;;;;;;22.03;15.90;;;0.90;99.90;;;;;;5075871;28;20205;-72
2023/01/24 00:48:34;;;;;;;24.30;15.87;;;0.90;99.90;;;;;;5075735;28;20197;-72
2023/01/24 00:51:01;;;;;;;21.73;15.00;;;0.90;99.90;;;;;;5075709;28;20235;-71
2023/01/24 00:53:28;;;;;;;23.50;15.07;;;0.80;99.90;;;;;;5075647;28;20204;-72
2023/01/24 00:55:55;;;;;;;23.87;15.50;;;0.80;99.90;;;;;;5075764;28;20221;-73
2023/01/24 00:58:22;;;;;;;23.40;15.60;;;0.80;99.90;;;;;;5075677;28;20197;-73
2023/01/24 01:00:48;;;;;;;22.27;15.10;;;0.80;99.90;;;;;;5075663;28;20263;-72
2023/01/24 01:03:17;;;;;;;25.13;16.13;;;0.90;99.90;;;;;;5075493;28;20197;-72
2023/01/24 01:05:44;;;;;;;24.07;15.43;;;0.90;99.90;;;;;;5075633;28;20251;-72
2023/01/24 01:08:12;;;;;;;22.60;15.20;;;0.80;99.90;;;;;;5075326;28;20201;-72
2023/01/24 01:10:39;;;;;;;23.97;15.93;;;0.80;99.90;;;;;;5075558;28;20247;-72
2023/01/24 01:13:09;;;;;;;22.77;14.37;;;0.80;99.90;;;;;;5075409;28;20197;-72
2023/01/24 01:15:37;;;;;;;23.10;15.40;;;0.80;99.90;;;;;;5075303;28;20197;-71
2023/01/24 01:18:04;;;;;;;23.53;15.53;;;0.80;99.90;;;;;;5075104;28;20649;-71
2023/01/24 01:20:31;;;;;;;25.33;16.80;;;0.80;99.90;;;;;;5075062;28;20242;-71
2023/01/24 01:22:57;;;;;;;23.60;15.20;;;0.80;99.90;;;;;;5075332;28;20193;-71
2023/01/24 01:25:25;;;;;;;22.47;15.23;;;0.80;99.90;;;;;;5074840;28;20217;-71
2023/01/24 01:27:52;;;;;;;24.10;15.17;;;0.80;99.90;;;;;;5075128;28;20209;-71
2023/01/24 01:30:19;;;;;;;25.77;15.57;;;0.80;99.90;;;;;;5075066;28;20266;-71
2023/01/24 01:32:46;;;;;;;24.17;15.20;;;0.80;99.90;;;;;;5074868;28;20606;-70
2023/01/24 01:35:12;;;;;;;27.10;15.40;;;0.80;99.90;;;;;;5074708;28;20664;-71
2023/01/24 01:37:39;;;;;;;24.60;16.20;;;0.80;99.90;;;;;;5074955;28;20229;-71
2023/01/24 01:40:07;;;;;;;23.33;14.80;;;0.80;99.90;;;;;;5074884;28;20201;-71
2023/01/24 01:42:51;;;;;;;25.90;16.37;;;0.80;99.90;;;;;;5074799;28;20243;-71
2023/01/24 01:45:40;;;;;;;22.17;14.70;;;0.80;99.90;;;;;;5074726;28;20208;-71
2023/01/24 01:48:20;;;;;;;23.50;15.27;;;0.80;99.90;;;;;;5074821;28;20212;-71
2023/01/24 01:50:55;;;;;;;24.80;16.23;;;0.80;99.90;;;;;;5074714;28;20197;-71
2023/01/24 01:53:24;;;;;;;26.20;16.37;;;0.80;99.90;;;;;;5074597;28;20595;-70
2023/01/24 01:55:56;;;;;;;23.57;15.53;;;0.80;99.90;;;;;;5074377;28;20201;-70
2023/01/24 01:58:24;;;;;;;24.17;15.20;;;0.80;99.90;;;;;;5074633;28;20258;-71
2023/01/24 02:00:51;;;;;;;24.60;15.83;;;0.80;99.90;;;;;;5074511;28;20205;-72
2023/01/24 02:03:38;;;;;;;22.73;15.90;;;0.80;99.90;;;;;;5074355;28;20201;-71
2023/01/24 02:06:07;;;;;;;26.37;15.83;;;0.80;99.90;;;;;;5074284;28;20222;-71
2023/01/24 02:08:34;;;;;;;25.00;15.83;;;0.80;99.90;;;;;;5074043;28;20717;-71
2023/01/24 02:13:48;;;;;;;24.63;15.67;;;0.90;99.90;;;;;;5074168;28;20196;-71
2023/01/24 02:16:15;;;;;;;23.73;14.87;;;0.90;99.90;;;;;;5073922;28;20220;-71
2023/01/24 02:18:44;;;;;;;24.90;16.33;;;0.90;99.90;;;;;;5073951;28;20258;-71
2023/01/24 02:21:14;;;;;;;27.30;16.70;;;0.90;99.90;;;;;;5073854;28;20251;-71
2023/01/24 02:23:50;;;;;;;26.30;16.07;;;0.90;99.90;;;;;;5073889;28;20672;-71
2023/01/24 02:26:21;;;;;;;25.57;16.57;;;0.90;99.90;;;;;;5073799;28;20224;-71
2023/01/24 02:28:52;;;;;;;25.40;16.30;;;0.90;99.90;;;;;;5074088;28;20197;-71
2023/01/24 02:31:19;;;;;;;25.87;16.63;;;0.90;99.90;;;;;;5073628;28;20706;-71
2023/01/24 02:33:45;;;;;;;27.43;17.47;;;1.00;99.90;;;;;;5073919;28;20270;-72
2023/01/24 02:36:19;;;;;;;27.03;16.33;;;1.00;99.90;;;;;;5073192;28;20197;-71
2023/01/24 02:38:53;;;;;;;29.70;17.03;;;1.00;99.90;;;;;;5073654;28;20209;-71
2023/01/24 02:41:26;;;;;;;26.17;16.90;;;1.00;99.90;;;;;;5073628;28;20200;-71
2023/01/24 02:43:58;;;;;;;24.00;15.83;;;1.00;99.90;;;;;;5073437;28;20197;-72
2023/01/24 02:46:24;;;;;;;26.33;16.67;;;1.00;99.90;;;;;;5073466;28;20197;-72
2023/01/24 02:48:51;;;;;;;24.23;16.27;;;0.90;99.90;;;;;;5073579;28;20193;-73
2023/01/24 02:54:03;;;;;;;26.00;16.10;;;1.00;99.90;;;;;;5073670;28;20208;-72
2023/01/24 02:59:14;;;;;;;28.03;17.67;;;1.00;99.90;;;;;;5072628;28;20239;-71
2023/01/24 03:01:40;;;;;;;28.73;18.13;;;1.00;99.90;;;;;;5073323;28;20243;-72
2023/01/24 03:04:10;;;;;;;27.27;17.67;;;1.00;99.90;;;;;;5073328;28;20706;-71
2023/01/24 03:06:37;;;;;;;28.47;18.47;;;1.10;99.90;;;;;;5074028;28;20255;-72
2023/01/24 03:09:18;;;;;;;27.43;18.43;;;1.00;99.90;;;;;;5073024;28;20212;-71
2023/01/24 03:11:46;;;;;;;29.10;18.43;;;1.10;99.90;;;;;;5073296;28;20292;-71
2023/01/24 03:36:07;;;;;;;25.27;15.30;;;1.10;99.90;;;;;;5073176;28;20270;-71
2023/01/24 03:41:19;;;;;;;23.60;15.47;;;1.10;99.90;;;;;;5072889;28;20659;-71
2023/01/24 03:43:46;;;;;;;24.67;15.47;;;1.10;99.90;;;;;;5072785;28;20250;-71
2023/01/24 03:46:13;;;;;;;25.63;16.53;;;1.10;99.90;;;;;;5072596;28;20556;-72
2023/01/24 03:48:40;;;;;;;24.73;15.60;;;1.00;99.90;;;;;;5074399;28;20250;-72
2023/01/24 03:53:50;;;;;;;23.43;14.80;;;1.10;99.90;;;;;;5076841;28;20250;-71
2023/01/24 03:56:17;;;;;;;23.33;15.47;;;1.10;99.90;;;;;;5076699;28;20201;-72
2023/01/24 03:58:44;;;;;;;24.20;14.97;;;1.00;99.90;;;;;;5076630;28;20258;-71
2023/01/24 04:01:12;;;;;;;21.97;14.63;;;1.00;99.90;;;;;;5076824;28;20274;-72
2023/01/24 04:03:38;;;;;;;21.50;14.30;;;1.00;99.90;;;;;;5076790;28;20197;-72
2023/01/24 04:06:06;;;;;;;23.03;13.97;;;1.00;99.90;;;;;;5076575;28;20538;-71
2023/01/24 04:08:32;;;;;;;22.67;13.63;;;1.00;99.90;;;;;;5076896;28;20552;-71
2023/01/24 04:10:59;;;;;;;22.07;14.10;;;1.00;99.90;;;;;;5076547;28;20201;-71
2023/01/24 04:13:25;;;;;;;21.53;13.20;;;1.00;99.90;;;;;;5076255;28;20227;-71
2023/01/24 04:15:52;;;;;;;23.53;13.63;;;1.00;99.90;;;;;;5076798;28;20201;-72
2023/01/24 04:18:20;;;;;;;20.13;13.87;;;1.00;99.90;;;;;;5076398;28;20270;-72
2023/01/24 04:20:47;;;;;;;20.43;13.37;;;1.00;99.90;;;;;;5076379;28;20254;-71
2023/01/24 04:23:13;;;;;;;19.90;13.83;;;1.00;99.90;;;;;;5076277;28;20542;-73
2023/01/24 04:25:40;;;;;;;16.80;11.97;;;1.00;99.90;;;;;;5075925;28;20224;-72
2023/01/24 04:28:06;;;;;;;16.00;11.70;;;1.00;99.90;;;;;;5076078;28;20560;-71
2023/01/24 04:30:33;;;;;;;19.33;12.70;;;1.00;99.90;;;;;;5076229;28;20197;-71
2023/01/24 04:33:00;;;;;;;19.37;12.57;;;1.00;99.90;;;;;;5076173;28;20201;-71
2023/01/24 04:35:29;;;;;;;19.87;11.83;;;1.00;99.90;;;;;;5075993;28;20197;-71
2023/01/24 04:38:00;;;;;;;18.90;12.30;;;1.00;99.90;;;;;;5075792;28;20615;-72
2023/01/24 04:40:26;;;;;;;17.73;12.03;;;1.00;99.90;;;;;;5075802;28;20660;-72
2023/01/24 04:42:55;;;;;;;19.27;11.60;;;1.00;99.90;;;;;;5075905;28;20255;-72
2023/01/24 04:45:21;;;;;;;17.83;11.43;;;1.00;99.90;;;;;;5075954;28;20201;-72
2023/01/24 04:47:48;;;;;;;19.80;12.83;;;1.00;99.90;;;;;;5075805;28;20670;-72
2023/01/24 04:50:15;;;;;;;18.80;12.63;;;1.00;99.90;;;;;;5075781;28;20309;-72
2023/01/24 04:52:43;;;;;;;17.23;11.70;;;1.00;99.90;;;;;;5075739;28;20200;-72
2023/01/24 04:55:10;;;;;;;17.43;11.97;;;1.00;99.90;;;;;;5075553;28;20197;-72
2023/01/24 04:57:36;;;;;;;18.70;12.17;;;1.00;99.90;;;;;;5075673;28;20254;-72
2023/01/24 05:00:04;;;;;;;17.07;12.00;;;1.00;99.90;;;;;;5075288;28;20251;-71
2023/01/24 05:02:32;;;;;;;15.00;10.77;;;1.00;99.90;;;;;;5075620;28;20199;-71
2023/01/24 05:04:58;;;;;;;17.13;12.07;;;1.00;99.90;;;;;;5075477;28;20197;-71
2023/01/24 05:07:25;;;;;;;16.70;11.63;;;1.00;99.90;;;;;;5075202;28;20660;-73
2023/01/24 05:09:53;;;;;;;19.57;11.87;;;0.90;99.90;;;;;;5075266;28;20545;-72
2023/01/24 05:12:20;;;;;;;17.97;10.97;;;0.90;99.90;;;;;;5075339;28;20197;-71
2023/01/24 05:14:46;;;;;;;17.70;11.53;;;0.90;99.90;;;;;;5075383;28;20197;-71
2023/01/24 05:17:13;;;;;;;16.47;11.10;;;0.90;99.90;;;;;;5075209;28;20221;-71
2023/01/24 05:19:39;;;;;;;16.03;11.03;;;0.90;99.90;;;;;;5075347;28;20197;-72
2023/01/24 05:22:06;;;;;;;15.83;11.37;;;1.00;99.90;;;;;;5075025;28;20192;-72
2023/01/24 05:24:32;;;;;;;17.53;11.70;;;0.90;99.90;;;;;;5075317;28;20201;-71
2023/01/24 05:27:00;;;;;;;18.90;11.60;;;0.90;99.90;;;;;;5074891;28;20237;-72
2023/01/24 05:29:27;;;;;;;18.07;12.20;;;0.90;99.90;;;;;;5075070;28;20201;-72
2023/01/24 05:31:54;;;;;;;16.67;11.40;;;0.90;99.90;;;;;;5074854;28;20564;-72
2023/01/24 05:34:20;;;;;;;16.60;11.30;;;0.90;99.90;;;;;;5074904;28;20197;-72
2023/01/24 05:36:47;;;;;;;17.30;11.10;;;0.90;99.90;;;;;;5074776;28;20529;-72
2023/01/24 05:39:14;;;;;;;18.40;12.23;;;0.90;99.90;;;;;;5075015;28;20193;-72
2023/01/24 05:41:41;;;;;;;16.63;11.20;;;0.90;99.90;;;;;;5074841;28;20201;-72
2023/01/24 05:44:09;;;;;;;18.00;11.50;;;0.90;99.90;;;;;;5074765;28;20227;-72
2023/01/24 05:46:35;;;;;;;17.43;11.40;;;0.90;99.90;;;;;;5074648;28;20560;-72
2023/01/24 05:49:02;;;;;;;15.43;10.97;;;0.90;99.90;;;;;;5074625;28;20197;-72
2023/01/24 05:51:29;;;;;;;17.30;11.80;;;0.90;99.90;;;;;;5074371;28;20224;-73
2023/01/24 05:53:55;;;;;;;17.50;11.47;;;0.90;99.90;;;;;;5074709;28;20194;-73
2023/01/24 05:56:22;;;;;;;17.13;12.17;;;0.90;99.90;;;;;;5074616;28;20201;-72
2023/01/24 05:58:49;;;;;;;17.83;12.20;;;0.90;99.90;;;;;;5074247;28;20692;-72
2023/01/24 06:01:18;;;;;;;16.20;11.27;;;0.90;99.90;;;;;;5074335;28;20247;-72
2023/01/24 06:03:46;;;;;;;15.87;11.37;;;0.90;99.90;;;;;;5074531;28;20197;-72
2023/01/24 06:06:16;;;;;;;15.13;11.50;;;0.90;99.90;;;;;;5074395;28;20255;-72
2023/01/24 06:08:42;;;;;;;15.57;10.90;;;0.90;99.90;;;;;;5074542;28;20247;-71
2023/01/24 06:11:13;;;;;;;16.00;11.40;;;0.90;99.90;;;;;;5073375;28;20204;-74
2023/01/24 06:13:40;;;;;;;16.43;11.03;;;0.90;99.90;;;;;;5074096;28;20284;-73
2023/01/24 06:16:10;;;;;;;17.50;11.17;;;0.90;99.90;;;;;;5074005;28;20247;-73
2023/01/24 06:18:39;;;;;;;15.27;10.83;;;0.90;99.90;;;;;;5073837;28;20708;-73
2023/01/24 06:21:07;;;;;;;17.13;11.97;;;0.90;99.90;;;;;;5074075;28;20193;-73
2023/01/24 06:23:34;;;;;;;18.30;11.90;;;0.90;99.90;;;;;;5073936;28;20200;-72
2023/01/24 06:26:02;;;;;;;14.83;10.37;;;0.90;99.90;;;;;;5073805;28;20302;-73
2023/01/24 06:28:29;;;;;;;17.20;10.63;;;0.90;99.90;;;;;;5073733;28;20201;-72
2023/01/24 06:31:04;;;;;;;17.17;11.50;;;0.90;99.90;;;;;;5073505;28;20648;-72
2023/01/24 06:33:42;;;;;;;15.70;10.63;;;0.90;99.90;;;;;;5073853;28;20197;-72
2023/01/24 06:36:22;;;;;;;15.53;10.70;;;0.90;99.90;;;;;;5073729;28;20242;-72
2023/01/24 06:38:50;;;;;;;16.63;11.60;;;0.90;99.90;;;;;;5073801;28;20221;-73
2023/01/24 06:41:17;;;;;;;16.63;11.00;;;0.90;99.90;;;;;;5073487;28;20201;-72
2023/01/24 06:43:45;;;;;;;19.10;12.70;;;0.90;99.90;;;;;;5073530;28;20688;-72
2023/01/24 06:46:13;;;;;;;17.43;11.77;;;0.90;99.90;;;;;;5073592;28;20560;-72
2023/01/24 06:48:43;;;;;;;13.97;10.80;;;0.90;99.90;;;;;;5073248;28;20246;-72
2023/01/24 06:51:12;;;;;;;14.87;10.70;;;0.90;99.90;;;;;;5073204;28;20197;-72
2023/01/24 06:53:38;;;;;;;14.23;10.47;;;0.90;99.90;;;;;;5072992;28;20219;-73
2023/01/24 06:56:05;;;;;;;14.93;10.33;;;1.00;99.90;;;;;;5073093;28;20209;-72
2023/01/24 06:58:32;;;;;;;16.47;11.70;;;1.00;99.90;;;;;;5073216;28;20256;-72
2023/01/24 07:00:58;;;;;;;14.97;10.50;;;0.90;99.90;;;;;;5073238;28;20201;-72
2023/01/24 07:03:25;;;;;;;16.80;10.73;;;1.00;99.90;;;;;;5073399;28;20254;-72
2023/01/24 07:05:53;;;;;;;16.23;10.13;;;1.00;99.90;;;;;;5073157;28;20193;-72
2023/01/24 07:08:21;;;;;;;16.87;9.57;;;0.90;99.90;;;;;;5072958;28;20201;-72
2023/01/24 07:10:47;;;;;;;14.13;9.93;;;0.90;99.90;;;;;;5073294;28;20197;-72
2023/01/24 07:13:14;;;;;;;14.07;9.67;;;0.90;99.90;;;;;;5073482;28;20242;-72
2023/01/24 07:15:41;;;;;;;17.93;10.13;;;0.90;99.90;;;;;;5073181;28;20533;-72
2023/01/24 07:18:08;;;;;;;14.17;9.73;;;0.90;99.90;;;;;;5072997;28;20309;-72
2023/01/24 07:20:35;;;;;;;12.07;9.20;;;1.00;99.90;;;;;;5072967;28;20201;-72
2023/01/24 07:23:04;;;;;;;12.73;9.63;;;1.00;99.90;;;;;;5072568;28;20266;-72
2023/01/24 07:25:34;;;;;;;12.00;8.80;;;0.90;99.90;;;;;;5072907;28;20193;-73
2023/01/24 07:28:01;;;;;;;11.87;8.47;;;1.00;99.90;;;;;;5073037;28;20549;-72
2023/01/24 07:30:29;;;;;;;12.70;8.37;;;1.00;99.90;;;;;;5072863;28;20386;-72
2023/01/24 07:32:55;;;;;;;11.73;8.80;;;1.10;99.90;;;;;;5073092;28;20288;-73
2023/01/24 07:35:22;;;;;;;11.33;8.30;;;1.00;99.90;;;;;;5072735;28;20201;-72
2023/01/24 07:37:49;;;;;;;12.50;8.83;;;1.10;99.90;;;;;;5072577;28;20623;-72
2023/01/24 07:40:17;;;;;;;12.87;9.00;;;1.10;99.90;;;;;;5072911;28;20230;-72
2023/01/24 07:42:43;;;;;;;13.27;8.93;;;1.10;99.90;;;;;;5073146;28;20193;-73
2023/01/24 07:45:10;;;;;;;10.73;7.87;;;1.10;99.90;;;;;;5072724;28;20576;-73
2023/01/24 07:47:37;;;;;;;11.60;8.73;;;1.20;99.90;;;;;;5072796;28;20231;-72
2023/01/24 07:50:04;;;;;;;10.30;7.63;;;1.20;99.90;;;;;;5073060;28;20196;-72
2023/01/24 07:52:31;;;;;;;11.33;8.03;;;1.20;99.90;;;;;;5072617;28;20597;-71
2023/01/24 07:54:57;;;;;;;11.60;7.70;;;1.20;99.90;;;;;;5072898;28;20201;-72
2023/01/24 07:57:25;;;;;;;11.17;7.77;;;1.30;99.90;;;;;;5072731;28;20197;-72
2023/01/24 07:59:52;;;;;;;10.60;7.27;;;1.30;99.90;;;;;;5072452;28;20761;-73
2023/01/24 08:02:18;;;;;;;10.20;7.87;;;1.30;99.90;;;;;;5072453;28;20200;-71
2023/01/24 08:04:45;;;;;;;11.80;7.70;;;1.30;99.90;;;;;;5072526;28;20234;-72
2023/01/24 08:07:18;;;;;;;9.67;7.47;;;1.40;99.90;;;;;;5072590;28;20250;-73
2023/01/24 08:09:45;;;;;;;11.77;7.80;;;1.40;99.90;;;;;;5072606;28;20254;-73
2023/01/24 08:12:12;;;;;;;10.67;7.60;;;1.40;99.90;;;;;;5072256;28;20227;-74
2023/01/24 08:14:40;;;;;;;13.07;7.97;;;1.40;99.90;;;;;;5072444;28;20203;-72
2023/01/24 08:17:06;;;;;;;10.00;7.27;;;1.50;99.90;;;;;;5072206;28;20197;-72
2023/01/24 08:19:33;;;;;;;9.47;7.33;;;1.50;99.90;;;;;;5072357;28;20225;-71
2023/01/24 08:22:00;;;;;;;10.20;7.83;;;1.60;99.90;;;;;;5072296;28;20698;-71
2023/01/24 08:24:26;;;;;;;9.93;7.13;;;1.60;99.90;;;;;;5072457;28;20250;-71
2023/01/24 08:26:53;;;;;;;10.83;8.03;;;1.60;99.90;;;;;;5072231;28;20228;-72
2023/01/24 08:29:19;;;;;;;12.77;7.70;;;1.60;99.90;;;;;;5072465;28;20205;-72
2023/01/24 08:31:48;;;;;;;10.37;7.27;;;1.60;99.90;;;;;;5072234;28;20197;-72
2023/01/24 08:34:15;;;;;;;10.10;7.27;;;1.60;99.90;;;;;;5073022;28;20204;-73
2023/01/24 08:36:41;;;;;;;8.93;6.87;;;1.60;99.90;;;;;;5076224;28;20588;-72
2023/01/24 08:39:08;;;;;;;10.07;7.23;;;1.60;99.90;;;;;;5075706;28;20224;-72
2023/01/24 08:41:35;;;;;;;9.07;6.83;;;1.70;99.90;;;;;;5075953;28;20201;-72
2023/01/24 08:44:02;;;;;;;9.00;7.20;;;1.70;99.90;;;;;;5075614;28;20533;-72
2023/01/24 08:46:29;;;;;;;11.00;7.90;;;1.70;99.90;;;;;;5075574;28;20631;-72
2023/01/24 08:48:57;;;;;;;8.40;6.30;;;1.70;99.90;;;;;;5075679;28;20209;-72
2023/01/24 08:51:25;;;;;;;9.70;7.40;;;1.70;99.90;;;;;;5075678;28;20197;-72
2023/01/24 08:53:52;;;;;;;9.13;6.93;;;1.80;99.90;;;;;;5075597;28;20254;-72
2023/01/24 08:56:18;;;;;;;9.10;7.27;;;1.80;99.90;;;;;;5075544;28;20193;-73
2023/01/24 08:58:45;;;;;;;9.57;6.80;;;1.80;99.90;;;;;;5075401;28;20690;-71
2023/01/24 09:01:11;;;;;;;8.83;6.50;;;1.90;99.90;;;;;;5075419;28;20201;-72
2023/01/24 09:03:38;;;;;;;9.77;6.87;;;1.90;99.90;;;;;;5075571;28;20193;-74
2023/01/24 09:06:07;;;;;;;8.77;6.90;;;1.90;99.90;;;;;;5075498;28;20243;-72
2023/01/24 09:08:34;;;;;;;8.90;6.83;;;1.90;99.90;;;;;;5075435;28;20197;-72
2023/01/24 09:11:01;;;;;;;10.50;7.07;;;2.00;99.90;;;;;;5075356;28;20227;-72
2023/01/24 09:13:28;;;;;;;8.80;6.80;;;2.00;99.90;;;;;;5075125;28;20199;-72
2023/01/24 09:15:55;;;;;;;9.10;7.00;;;2.10;99.90;;;;;;5075325;28;20251;-72
2023/01/24 09:18:21;;;;;;;9.37;7.07;;;2.10;99.90;;;;;;5075246;28;20688;-70
2023/01/24 09:20:48;;;;;;;8.83;6.77;;;2.10;99.90;;;;;;5075230;28;20255;-72
2023/01/24 09:23:16;;;;;;;10.77;7.50;;;2.10;99.90;;;;;;5075469;28;20710;-72
2023/01/24 09:25:49;;;;;;;10.53;7.27;;;2.10;99.90;;;;;;5074749;28;20689;-71
2023/01/24 09:28:16;;;;;;;10.27;7.40;;;2.10;99.90;;;;;;5075174;28;20201;-71
2023/01/24 09:30:42;;;;;;;10.77;8.43;;;2.20;99.90;;;;;;5075079;28;20202;-71
2023/01/24 09:33:09;;;;;;;9.83;7.63;;;2.20;99.90;;;;;;5074997;28;20255;-72
2023/01/24 09:35:35;;;;;;;9.47;7.27;;;2.20;99.90;;;;;;5074934;28;20248;-72
2023/01/24 09:38:03;;;;;;;9.20;7.03;;;2.30;99.90;;;;;;5074988;28;20629;-72
2023/01/24 09:40:42;;;;;;;8.27;6.90;;;2.30;99.90;;;;;;5074643;28;20699;-72
2023/01/24 09:43:16;;;;;;;7.90;6.63;;;2.30;99.90;;;;;;5074820;28;20197;-71
2023/01/24 09:45:50;;;;;;;10.27;7.30;;;2.30;99.90;;;;;;5074629;28;20198;-72
2023/01/24 09:48:17;;;;;;;8.73;7.63;;;2.30;99.90;;;;;;5074496;28;20214;-72
2023/01/24 09:50:47;;;;;;;9.40;7.10;;;2.30;99.90;;;;;;5074469;28;20197;-72
2023/01/24 09:53:20;;;;;;;9.03;6.73;;;2.40;99.90;;;;;;5074805;28;20267;-74
2023/01/24 09:55:48;;;;;;;9.30;7.50;;;2.40;99.90;;;;;;5074611;28;20734;-71
2023/01/24 09:58:31;;;;;;;9.93;7.27;;;2.50;99.90;;;;;;5076462;28;20207;-71
2023/01/24 10:01:00;;;;;;;10.23;7.13;;;2.40;99.90;;;;;;5074342;28;20281;-71
2023/01/24 10:03:27;;;;;;;9.60;7.47;;;2.50;99.90;;;;;;5074199;28;20202;-72
2023/01/24 10:05:57;;;;;;;11.40;7.70;;;2.50;99.90;;;;;;5074422;28;20533;-71
2023/01/24 10:08:33;;;;;;;9.20;7.20;;;2.60;99.90;;;;;;5074634;28;20563;-71
2023/01/24 10:11:16;;;;;;;9.73;7.10;;;2.70;99.90;;;;;;5074122;28;20650;-72
2023/01/24 10:13:55;;;;;;;10.10;7.03;;;2.60;99.90;;;;;;5074032;28;20198;-71
2023/01/24 10:16:45;;;;;;;9.07;7.20;;;2.60;99.90;;;;;;5074168;28;20595;-72
2023/01/24 10:19:25;;;;;;;9.13;7.23;;;2.70;99.90;;;;;;5074172;28;20219;-72
2023/01/24 10:22:13;;;;;;;10.87;7.60;;;2.80;99.90;;;;;;5074179;28;20629;-71
2023/01/24 10:24:44;;;;;;;9.47;7.37;;;2.80;99.90;;;;;;5074120;28;20197;-72
2023/01/24 10:27:22;;;;;;;10.83;7.73;;;2.80;99.90;;;;;;5073652;28;20596;-72
2023/01/24 10:29:56;;;;;;;10.03;7.20;;;2.80;99.90;;;;;;5073696;28;20197;-72
2023/01/24 10:32:30;;;;;;;10.00;7.50;;;2.80;99.90;;;;;;5073687;28;20199;-73
2023/01/24 10:34:59;;;;;;;9.60;7.40;;;2.90;99.90;;;;;;5073725;28;20259;-72
2023/01/24 10:37:38;;;;;;;11.27;8.07;;;2.90;99.90;;;;;;5073830;28;20195;-72
2023/01/24 10:40:12;;;;;;;10.27;7.87;;;2.90;99.90;;;;;;5073608;28;20223;-72
2023/01/24 10:42:40;;;;;;;10.07;7.53;;;2.90;99.90;;;;;;5073666;28;20197;-72
2023/01/24 10:45:29;;;;;;;9.10;7.83;;;2.90;99.90;;;;;;5073422;28;20275;-72
2023/01/24 10:47:59;;;;;;;10.03;7.33;;;2.90;99.90;;;;;;5073524;28;20306;-72
2023/01/24 10:50:34;;;;;;;9.70;7.37;;;2.80;99.90;;;;;;5073632;28;20202;-72
2023/01/24 10:53:13;;;;;;;8.60;7.37;;;2.80;99.90;;;;;;5073263;28;20728;-72
2023/01/24 10:55:40;;;;;;;9.73;7.27;;;2.80;99.90;;;;;;5073313;28;20210;-72
2023/01/24 10:58:23;;;;;;;9.90;7.63;;;2.90;99.90;;;;;;5073022;28;20205;-72
2023/01/24 11:00:57;;;;;;;10.57;8.00;;;2.80;99.90;;;;;;5073592;28;20230;-72
2023/01/24 11:03:28;;;;;;;10.67;8.07;;;2.90;99.90;;;;;;5073316;28;20560;-73
2023/01/24 11:05:57;;;;;;;10.43;7.20;;;3.00;99.90;;;;;;5073046;28;20204;-72
2023/01/24 11:08:25;;;;;;;12.27;8.43;;;2.90;99.90;;;;;;5073352;28;20245;-72
2023/01/24 11:10:53;;;;;;;11.27;8.40;;;2.90;99.90;;;;;;5073250;28;20213;-72
2023/01/24 11:13:31;;;;;;;9.40;7.67;;;2.90;99.90;;;;;;5073091;28;20605;-71
2023/01/24 11:16:03;;;;;;;9.47;7.77;;;2.80;99.90;;;;;;5073182;28;20206;-72
2023/01/24 11:18:31;;;;;;;10.73;7.47;;;2.90;99.90;;;;;;5072830;28;20210;-72
2023/01/24 11:21:14;;;;;;;11.43;7.97;;;2.90;99.90;;;;;;5072888;28;20226;-70
2023/01/24 11:23:42;;;;;;;11.77;8.90;;;3.00;99.90;;;;;;5073203;28;20196;-73
2023/01/24 11:26:23;;;;;;;11.87;8.43;;;3.00;99.90;;;;;;5072546;28;20254;-72
2023/01/24 11:28:59;;;;;;;11.23;8.47;;;3.00;99.90;;;;;;5072733;28;20229;-73
2023/01/24 11:31:30;;;;;;;10.40;7.83;;;3.00;99.90;;;;;;5073117;28;20252;-72
2023/01/24 11:34:28;;;;;;;10.87;7.80;;;2.90;99.90;;;;;;5073028;28;20546;-71
2023/01/24 11:37:06;;;;;;;10.20;8.17;;;2.90;99.90;;;;;;5072889;28;20216;-72
2023/01/24 11:39:40;;;;;;;10.60;8.20;;;2.90;99.90;;;;;;5072590;28;20682;-72
2023/01/24 11:42:15;;;;;;;10.33;8.00;;;3.00;99.90;;;;;;5072873;28;20241;-73
2023/01/24 11:45:03;;;;;;;10.50;8.37;;;3.00;99.90;;;;;;5072766;28;20200;-72
2023/01/24 11:47:34;;;;;;;13.00;9.27;;;3.10;99.90;;;;;;5072507;28;20200;-72
2023/01/24 11:50:20;;;;;;;13.73;9.67;;;3.10;99.90;;;;;;5072804;28;20656;-73
2023/01/24 11:52:57;;;;;;;11.77;8.40;;;3.20;99.90;;;;;;5072384;28;20657;-72
2023/01/24 11:55:36;;;;;;;11.03;7.83;;;3.20;99.90;;;;;;5072511;28;20208;-73
2023/01/24 11:58:21;;;;;;;10.80;8.33;;;3.20;99.90;;;;;;5072439;28;20793;-72
2023/01/24 12:00:56;;;;;;;11.90;8.87;;;3.20;99.90;;;;;;5072568;28;20224;-73
2023/01/24 12:03:45;;;;;;;12.70;8.63;;;3.20;99.90;;;;;;5072407;28;20199;-72
2023/01/24 12:06:24;;;;;;;12.60;9.27;;;3.20;99.90;;;;;;5072123;28;20713;-72
2023/01/24 12:09:03;;;;;;;13.73;9.00;;;3.30;99.90;;;;;;5072200;28;20200;-72
2023/01/24 12:11:36;;;;;;;11.70;9.13;;;3.20;99.90;;;;;;5076340;28;20239;-72
2023/01/24 12:14:33;;;;;;;12.43;8.93;;;3.30;99.90;;;;;;5076258;28;20198;-72
2023/01/24 12:17:07;;;;;;;14.47;8.43;;;3.30;99.90;;;;;;5062635;28;20200;-72
2023/01/24 12:19:50;;;;;;;12.80;9.20;;;3.20;99.90;;;;;;5076161;28;20223;-71
2023/01/24 12:22:20;;;;;;;12.37;8.60;;;3.20;99.90;;;;;;5075979;28;20192;-71
2023/01/24 12:24:53;;;;;;;12.73;9.43;;;3.10;99.90;;;;;;5076199;28;20204;-71
2023/01/24 12:27:24;;;;;;;12.17;9.10;;;3.00;99.90;;;;;;5075924;28;20239;-72
2023/01/24 12:29:59;;;;;;;11.80;8.70;;;3.10;99.90;;;;;;5076142;28;20199;-72
2023/01/24 12:32:34;;;;;;;14.10;9.73;;;3.10;99.90;;;;;;5075961;28;20200;-71
2023/01/24 12:35:11;;;;;;;13.47;9.77;;;3.10;99.90;;;;;;5075806;28;20243;-71
2023/01/24 12:37:45;;;;;;;12.87;9.10;;;3.10;99.90;;;;;;5075820;28;20587;-72
2023/01/24 12:40:20;;;;;;;12.63;9.20;;;3.10;99.90;;;;;;5075583;28;20686;-72
2023/01/24 12:42:56;;;;;;;14.50;9.27;;;2.90;99.90;;;;;;5076026;28;20200;-72
2023/01/24 12:45:27;;;;;;;12.13;9.50;;;3.00;99.90;;;;;;5075637;28;20230;-72
2023/01/24 12:48:00;;;;;;;13.20;9.87;;;3.00;99.90;;;;;;5075704;28;20200;-72
2023/01/24 12:50:34;;;;;;;13.77;10.00;;;3.00;99.90;;;;;;5075754;28;20610;-71
2023/01/24 12:53:09;;;;;;;12.13;9.23;;;2.90;99.90;;;;;;5075789;28;20266;-72
2023/01/24 12:55:42;;;;;;;14.77;10.37;;;2.90;99.90;;;;;;5075491;28;20200;-72
2023/01/24 12:58:14;;;;;;;13.80;10.90;;;2.90;99.90;;;;;;5075409;28;20208;-71
2023/01/24 13:00:53;;;;;;;14.10;10.70;;;2.90;99.90;;;;;;5075255;28;20561;-71
2023/01/24 13:03:44;;;;;;;13.73;10.73;;;2.90;99.90;;;;;;5075489;28;20226;-71
2023/01/24 13:06:18;;;;;;;14.33;9.73;;;2.80;99.90;;;;;;5075266;28;20724;-71
2023/01/24 13:08:54;;;;;;;15.57;11.23;;;2.90;99.90;;;;;;5075217;28;20212;-72
2023/01/24 13:11:23;;;;;;;12.30;10.03;;;2.90;99.90;;;;;;5075106;28;20662;-72
2023/01/24 13:14:01;;;;;;;17.20;11.13;;;2.80;99.90;;;;;;5075306;28;20207;-72
2023/01/24 13:16:50;;;;;;;16.00;10.43;;;2.70;99.90;;;;;;5075083;28;20203;-72
2023/01/24 13:19:31;;;;;;;12.53;10.50;;;2.70;99.90;;;;;;5075171;28;20200;-73
2023/01/24 13:22:10;;;;;;;14.80;11.13;;;2.70;99.90;;;;;;5074894;28;20700;-71
2023/01/24 13:24:49;;;;;;;15.07;10.33;;;2.70;99.90;;;;;;5075182;28;20198;-70
2023/01/24 13:27:27;;;;;;;14.23;10.37;;;2.70;99.90;;;;;;5075139;28;20228;-71
2023/01/24 13:30:23;;;;;;;15.50;10.67;;;2.70;99.90;;;;;;5074938;28;20545;-72
2023/01/24 13:32:53;;;;;;;15.07;10.50;;;2.70;99.90;;;;;;5074936;28;20212;-72
2023/01/24 13:35:22;;;;;;;17.67;11.07;;;2.70;99.90;;;;;;5074932;28;20197;-71